Time;durP1;ratioP1;P1;durP2;ratioP2;P2;SDS_P1;SDS_P2;PMS_P1;PMS_P2;Temp;Humidity;BMP_temperature;BMP_pressure;BME280_temperature;BME280_humidity;BME280_pressure;Samples;Min_cycle;Max_cycle;Signal;HPM_P1;HPM_P2
2022/04/09 00:00:47;;;;;;;7.93;1.60;;;;;;;;;;5163261;27;20717;-18
2022/04/09 00:03:15;;;;;;;5.40;1.55;;;;;;;;;;5168772;27;20230;-18
2022/04/09 00:05:42;;;;;;;5.03;1.35;;;;;;;;;;5165287;27;20226;-17
2022/04/09 00:08:11;;;;;;;6.60;1.50;;;;;;;;;;5160569;27;20693;-18
2022/04/09 00:10:38;;;;;;;6.40;1.23;;;;;;;;;;5162955;27;20241;-19
2022/04/09 00:13:05;;;;;;;4.97;1.27;;;;;;;;;;5169705;27;20779;-19
2022/04/09 00:15:33;;;;;;;6.97;2.05;;;;;;;;;;5165138;27;20254;-19
2022/04/09 00:18:00;;;;;;;3.28;1.45;;;;;;;;;;5165284;27;20696;-18
2022/04/09 00:20:27;;;;;;;4.55;1.30;;;;;;;;;;5166227;27;20223;-19
2022/04/09 00:22:55;;;;;;;4.90;1.55;;;;;;;;;;5166808;27;20234;-19
2022/04/09 00:25:24;;;;;;;4.32;1.50;;;;;;;;;;5168327;27;20214;-19
2022/04/09 00:27:51;;;;;;;6.80;1.48;;;;;;;;;;5167150;27;20984;-19
2022/04/09 00:30:19;;;;;;;5.82;1.77;;;;;;;;;;5163646;27;20344;-19
2022/04/09 00:32:46;;;;;;;7.70;1.77;;;;;;;;;;5168609;27;20322;-19
2022/04/09 00:35:13;;;;;;;4.10;1.50;;;;;;;;;;5168186;27;20350;-18
2022/04/09 00:37:41;;;;;;;4.80;1.60;;;;;;;;;;5160411;27;21001;-19
2022/04/09 00:40:09;;;;;;;5.55;1.40;;;;;;;;;;5164566;27;20210;-19
2022/04/09 00:42:38;;;;;;;4.03;1.40;;;;;;;;;;5167275;27;20233;-18
2022/04/09 00:45:07;;;;;;;5.97;1.10;;;;;;;;;;5165275;27;20217;-19
2022/04/09 00:47:35;;;;;;;4.53;1.45;;;;;;;;;;5164507;27;20743;-18
2022/04/09 00:50:02;;;;;;;6.20;1.55;;;;;;;;;;5169002;27;20329;-19
2022/04/09 00:52:29;;;;;;;6.47;1.80;;;;;;;;;;5166090;27;20229;-19
2022/04/09 00:54:57;;;;;;;5.30;1.30;;;;;;;;;;5166149;27;21001;-18
2022/04/09 00:57:25;;;;;;;8.40;2.13;;;;;;;;;;5166363;27;20245;-19
2022/04/09 00:59:54;;;;;;;7.22;1.80;;;;;;;;;;5166098;27;20674;-17
2022/04/09 01:02:21;;;;;;;4.45;1.58;;;;;;;;;;5164261;27;20242;-19
2022/04/09 01:04:49;;;;;;;7.97;2.03;;;;;;;;;;5167575;27;20990;-19
2022/04/09 01:07:16;;;;;;;6.38;1.52;;;;;;;;;;5160242;27;20211;-19
2022/04/09 01:09:45;;;;;;;5.22;1.17;;;;;;;;;;5166470;27;20234;-19
2022/04/09 01:12:14;;;;;;;7.85;1.55;;;;;;;;;;5162925;27;20226;-19
2022/04/09 01:14:41;;;;;;;5.05;1.42;;;;;;;;;;5160757;27;20253;-18
2022/04/09 01:17:10;;;;;;;4.25;1.30;;;;;;;;;;5164273;27;20234;-19
2022/04/09 01:19:37;;;;;;;6.85;1.85;;;;;;;;;;5164350;27;20234;-19
2022/04/09 01:22:06;;;;;;;5.57;1.50;;;;;;;;;;5164053;27;20246;-19
2022/04/09 01:24:33;;;;;;;4.88;1.40;;;;;;;;;;5169204;27;20230;-19
2022/04/09 01:27:00;;;;;;;5.22;1.50;;;;;;;;;;5167499;27;20225;-19
2022/04/09 01:29:28;;;;;;;5.38;1.05;;;;;;;;;;5165655;27;20239;-19
2022/04/09 01:31:55;;;;;;;5.53;1.75;;;;;;;;;;5165646;27;20233;-19
2022/04/09 01:34:23;;;;;;;5.35;1.50;;;;;;;;;;5165239;27;20693;-19
2022/04/09 01:36:50;;;;;;;5.80;1.40;;;;;;;;;;5167110;27;20226;-19
2022/04/09 01:39:19;;;;;;;4.80;1.55;;;;;;;;;;5168001;27;20226;-18
2022/04/09 01:41:46;;;;;;;5.35;1.35;;;;;;;;;;5164213;27;20231;-19
2022/04/09 01:44:14;;;;;;;5.93;1.98;;;;;;;;;;5164819;27;20309;-19
2022/04/09 01:46:44;;;;;;;5.60;1.63;;;;;;;;;;5161806;27;20226;-18
2022/04/09 01:49:13;;;;;;;6.20;1.52;;;;;;;;;;5158993;27;20239;-19
2022/04/09 01:51:40;;;;;;;5.43;1.83;;;;;;;;;;5159215;27;20218;-18
2022/04/09 01:54:07;;;;;;;5.78;1.70;;;;;;;;;;5165713;27;20223;-19
2022/04/09 01:56:36;;;;;;;5.95;1.75;;;;;;;;;;5166661;27;20224;-19
2022/04/09 01:59:03;;;;;;;3.72;1.40;;;;;;;;;;5164328;27;20226;-18
2022/04/09 02:01:32;;;;;;;4.90;1.30;;;;;;;;;;5166183;27;20233;-19
2022/04/09 02:04:00;;;;;;;6.47;1.83;;;;;;;;;;5164751;27;20799;-19
2022/04/09 02:06:28;;;;;;;4.43;1.38;;;;;;;;;;5164932;27;20608;-19
2022/04/09 02:08:55;;;;;;;4.95;1.63;;;;;;;;;;5162076;27;20230;-17
2022/04/09 02:11:23;;;;;;;5.35;1.60;;;;;;;;;;5166982;27;20234;-18
2022/04/09 02:13:52;;;;;;;7.60;1.65;;;;;;;;;;5165242;27;20232;-19
2022/04/09 02:16:19;;;;;;;3.75;1.38;;;;;;;;;;5162890;27;20230;-19
2022/04/09 02:18:47;;;;;;;4.00;1.42;;;;;;;;;;5162999;27;20260;-19
2022/04/09 02:21:14;;;;;;;6.10;1.58;;;;;;;;;;5162850;27;20238;-18
2022/04/09 02:23:41;;;;;;;5.70;2.08;;;;;;;;;;5159714;27;20222;-19
2022/04/09 02:26:09;;;;;;;5.60;1.50;;;;;;;;;;5162752;27;20712;-19
2022/04/09 02:28:36;;;;;;;5.88;1.83;;;;;;;;;;5164012;27;20231;-19
2022/04/09 02:31:05;;;;;;;6.03;1.52;;;;;;;;;;5163870;27;20217;-19
2022/04/09 02:33:32;;;;;;;4.45;1.38;;;;;;;;;;5164007;27;20279;-19
2022/04/09 02:35:59;;;;;;;3.63;1.30;;;;;;;;;;5166224;27;20231;-18
2022/04/09 02:38:27;;;;;;;3.47;1.15;;;;;;;;;;5164162;27;20233;-19
2022/04/09 02:40:55;;;;;;;5.75;1.80;;;;;;;;;;5165631;27;20227;-19
2022/04/09 02:43:22;;;;;;;5.68;1.50;;;;;;;;;;5163866;27;20606;-18
2022/04/09 02:45:50;;;;;;;5.45;1.30;;;;;;;;;;5165853;27;20229;-19
2022/04/09 02:48:19;;;;;;;6.07;1.40;;;;;;;;;;5161974;27;20284;-17
2022/04/09 02:50:48;;;;;;;5.63;1.80;;;;;;;;;;5169460;27;20587;-18
2022/04/09 02:53:15;;;;;;;3.38;1.42;;;;;;;;;;5165196;27;20226;-18
2022/04/09 02:55:42;;;;;;;3.42;1.45;;;;;;;;;;5166508;27;20226;-19
2022/04/09 02:58:10;;;;;;;4.70;1.20;;;;;;;;;;5161731;27;20226;-19
2022/04/09 03:00:37;;;;;;;4.13;1.42;;;;;;;;;;5163552;27;20218;-19
2022/04/09 03:03:04;;;;;;;6.90;1.63;;;;;;;;;;5165589;27;20236;-19
2022/04/09 03:05:33;;;;;;;4.03;1.20;;;;;;;;;;5163001;27;20851;-19
2022/04/09 03:08:00;;;;;;;3.92;1.38;;;;;;;;;;5165053;27;20230;-19
2022/04/09 03:10:28;;;;;;;4.47;1.40;;;;;;;;;;5161850;27;20234;-19
2022/04/09 03:12:56;;;;;;;3.60;1.35;;;;;;;;;;5166982;27;20233;-19
2022/04/09 03:15:23;;;;;;;5.60;1.33;;;;;;;;;;5162082;27;21012;-19
2022/04/09 03:17:51;;;;;;;4.22;1.20;;;;;;;;;;5167368;27;20222;-17
2022/04/09 03:20:18;;;;;;;3.65;1.10;;;;;;;;;;5164073;27;20222;-18
2022/04/09 03:22:47;;;;;;;4.25;1.48;;;;;;;;;;5163442;27;20253;-18
2022/04/09 03:25:14;;;;;;;4.80;1.25;;;;;;;;;;5161568;27;20260;-18
2022/04/09 03:27:42;;;;;;;4.13;0.90;;;;;;;;;;5161518;27;20218;-19
2022/04/09 03:30:09;;;;;;;4.25;1.00;;;;;;;;;;5165433;27;20214;-19
2022/04/09 03:32:37;;;;;;;5.15;1.30;;;;;;;;;;5164318;27;20989;-19
2022/04/09 03:35:05;;;;;;;4.38;1.27;;;;;;;;;;5156228;27;20237;-19
2022/04/09 03:37:34;;;;;;;5.43;1.40;;;;;;;;;;5168989;27;20226;-19
2022/04/09 03:40:04;;;;;;;3.55;1.25;;;;;;;;;;5163402;27;20974;-19
2022/04/09 03:42:31;;;;;;;4.47;0.80;;;;;;;;;;5157629;27;20237;-19
2022/04/09 03:44:59;;;;;;;5.43;1.27;;;;;;;;;;5157005;27;20222;-19
2022/04/09 03:47:26;;;;;;;6.15;1.10;;;;;;;;;;5164175;27;20221;-19
2022/04/09 03:49:53;;;;;;;3.65;1.20;;;;;;;;;;5165956;27;20237;-19
2022/04/09 03:52:21;;;;;;;5.80;1.45;;;;;;;;;;5159875;27;20231;-18
2022/04/09 03:54:49;;;;;;;3.10;1.02;;;;;;;;;;5163943;27;20234;-18
2022/04/09 03:57:17;;;;;;;4.03;1.27;;;;;;;;;;5161930;27;20226;-19
2022/04/09 03:59:45;;;;;;;2.67;1.00;;;;;;;;;;5165356;27;20580;-19
2022/04/09 04:02:12;;;;;;;6.20;1.00;;;;;;;;;;5163659;27;20230;-18
2022/04/09 04:04:39;;;;;;;2.83;0.93;;;;;;;;;;5165008;27;20226;-19
2022/04/09 04:07:07;;;;;;;3.97;1.13;;;;;;;;;;5159892;27;20226;-19
2022/04/09 04:09:34;;;;;;;2.95;1.00;;;;;;;;;;5165082;27;20252;-19
2022/04/09 04:12:01;;;;;;;4.32;0.85;;;;;;;;;;5165592;27;20291;-19
2022/04/09 04:14:30;;;;;;;3.22;1.00;;;;;;;;;;5165216;27;21676;-19
2022/04/09 04:16:58;;;;;;;3.13;1.00;;;;;;;;;;5161330;27;20226;-19
2022/04/09 04:19:25;;;;;;;4.10;1.30;;;;;;;;;;5163273;27;20311;-19
2022/04/09 04:21:52;;;;;;;3.33;0.98;;;;;;;;;;5160010;27;20235;-18
2022/04/09 04:24:20;;;;;;;3.22;0.95;;;;;;;;;;5164234;27;21016;-18
2022/04/09 04:26:47;;;;;;;2.13;0.82;;;;;;;;;;5161271;27;20222;-18
2022/04/09 04:29:15;;;;;;;2.20;0.60;;;;;;;;;;5160659;27;20230;-19
2022/04/09 04:31:43;;;;;;;2.83;0.95;;;;;;;;;;5165363;27;20234;-19
2022/04/09 04:34:11;;;;;;;4.57;1.20;;;;;;;;;;5168972;27;20224;-19
2022/04/09 04:36:38;;;;;;;3.88;0.70;;;;;;;;;;5164206;27;20726;-19
2022/04/09 04:39:05;;;;;;;2.83;0.80;;;;;;;;;;5163925;27;20271;-18
2022/04/09 04:41:33;;;;;;;2.80;0.77;;;;;;;;;;5167090;27;20341;-17
2022/04/09 04:44:00;;;;;;;3.25;1.00;;;;;;;;;;5168371;27;20256;-19
2022/04/09 04:46:27;;;;;;;2.55;1.20;;;;;;;;;;5166466;27;20223;-19
2022/04/09 04:48:56;;;;;;;6.28;1.25;;;;;;;;;;5166868;27;20225;-19
2022/04/09 04:51:24;;;;;;;2.35;0.73;;;;;;;;;;5164892;27;20238;-19
2022/04/09 04:53:51;;;;;;;2.75;0.98;;;;;;;;;;5163699;27;20229;-19
2022/04/09 04:56:19;;;;;;;4.60;0.80;;;;;;;;;;5164022;27;20257;-19
2022/04/09 04:58:47;;;;;;;3.40;1.17;;;;;;;;;;5172095;27;20250;-19
2022/04/09 05:01:14;;;;;;;3.40;0.93;;;;;;;;;;5163546;27;20235;-19
2022/04/09 05:03:41;;;;;;;8.73;1.40;;;;;;;;;;5164336;27;20287;-19
2022/04/09 05:06:10;;;;;;;3.40;0.80;;;;;;;;;;5168091;27;20223;-18
2022/04/09 05:08:38;;;;;;;3.42;0.90;;;;;;;;;;5164692;27;20219;-19
2022/04/09 05:11:06;;;;;;;3.45;0.82;;;;;;;;;;5162716;27;20238;-19
2022/04/09 05:13:33;;;;;;;2.80;0.85;;;;;;;;;;5168388;27;20218;-19
2022/04/09 05:16:00;;;;;;;3.00;1.10;;;;;;;;;;5160192;27;20239;-19
2022/04/09 05:18:28;;;;;;;2.88;1.00;;;;;;;;;;5163617;27;20237;-19
2022/04/09 05:20:55;;;;;;;3.92;0.98;;;;;;;;;;5164407;27;20242;-19
2022/04/09 05:23:24;;;;;;;2.33;1.00;;;;;;;;;;5165670;27;20241;-19
2022/04/09 05:25:51;;;;;;;4.22;1.00;;;;;;;;;;5166258;27;20222;-19
2022/04/09 05:28:18;;;;;;;3.25;0.98;;;;;;;;;;5164476;27;20745;-19
2022/04/09 05:30:46;;;;;;;3.47;1.00;;;;;;;;;;5162466;27;20227;-18
2022/04/09 05:33:13;;;;;;;3.63;0.93;;;;;;;;;;5165416;27;20935;-19
2022/04/09 05:35:40;;;;;;;5.13;0.90;;;;;;;;;;5160633;27;20238;-19
2022/04/09 05:38:09;;;;;;;3.60;0.70;;;;;;;;;;5167416;27;20226;-19
2022/04/09 05:40:37;;;;;;;3.20;0.93;;;;;;;;;;5164169;27;20229;-19
2022/04/09 05:43:05;;;;;;;1.13;0.57;;;;;;;;;;5163590;27;20219;-19
2022/04/09 05:45:32;;;;;;;3.05;1.02;;;;;;;;;;5162456;27;20950;-19
2022/04/09 05:48:00;;;;;;;4.55;0.98;;;;;;;;;;5165516;27;20230;-19
2022/04/09 05:50:27;;;;;;;2.83;0.95;;;;;;;;;;5166897;27;20567;-19
2022/04/09 05:52:54;;;;;;;2.65;1.10;;;;;;;;;;5167159;27;20235;-19
2022/04/09 05:55:22;;;;;;;2.08;0.82;;;;;;;;;;5164791;27;20226;-19
2022/04/09 05:57:50;;;;;;;2.28;0.75;;;;;;;;;;5167154;27;20222;-19
2022/04/09 06:00:19;;;;;;;3.47;1.25;;;;;;;;;;5163678;27;20223;-19
2022/04/09 06:02:46;;;;;;;2.65;0.85;;;;;;;;;;5167624;27;20611;-19
2022/04/09 06:05:13;;;;;;;3.97;1.27;;;;;;;;;;5163643;27;20299;-18
2022/04/09 06:07:41;;;;;;;4.10;0.93;;;;;;;;;;5157731;27;20241;-19
2022/04/09 06:10:10;;;;;;;3.35;1.13;;;;;;;;;;5166708;27;20253;-19
2022/04/09 06:12:37;;;;;;;3.00;0.88;;;;;;;;;;5159337;27;20237;-19
2022/04/09 06:15:07;;;;;;;2.47;0.95;;;;;;;;;;5161823;27;20230;-19
2022/04/09 06:17:36;;;;;;;2.80;1.08;;;;;;;;;;5165318;27;20229;-19
2022/04/09 06:20:04;;;;;;;3.08;0.90;;;;;;;;;;5165994;27;20254;-19
2022/04/09 06:22:37;;;;;;;2.92;1.02;;;;;;;;;;5166598;27;20732;-19
2022/04/09 06:25:05;;;;;;;3.80;1.10;;;;;;;;;;5163874;27;20227;-19
2022/04/09 06:27:35;;;;;;;2.70;0.90;;;;;;;;;;5166146;27;20214;-19
2022/04/09 06:30:03;;;;;;;2.72;1.00;;;;;;;;;;5165253;27;20226;-19
2022/04/09 06:32:32;;;;;;;4.35;1.10;;;;;;;;;;5172146;27;20219;-19
2022/04/09 06:34:59;;;;;;;2.67;1.00;;;;;;;;;;5164607;27;20235;-19
2022/04/09 06:37:27;;;;;;;2.45;1.00;;;;;;;;;;5159368;27;20713;-19
2022/04/09 06:39:55;;;;;;;2.38;0.90;;;;;;;;;;5159404;27;20226;-19
2022/04/09 06:42:23;;;;;;;2.75;1.15;;;;;;;;;;5163980;27;20230;-19
2022/04/09 06:44:50;;;;;;;3.15;1.00;;;;;;;;;;5159801;27;20987;-19
2022/04/09 06:47:17;;;;;;;2.55;1.02;;;;;;;;;;5165953;27;20235;-19
2022/04/09 06:49:46;;;;;;;3.80;0.82;;;;;;;;;;5167007;27;20266;-19
2022/04/09 06:52:13;;;;;;;2.38;0.90;;;;;;;;;;5168476;27;20381;-19
2022/04/09 06:54:42;;;;;;;2.85;1.02;;;;;;;;;;5165722;27;20725;-18
2022/04/09 06:57:09;;;;;;;3.88;1.00;;;;;;;;;;5172893;27;20226;-19
2022/04/09 06:59:36;;;;;;;1.83;0.82;;;;;;;;;;5172687;27;20248;-19
2022/04/09 07:02:04;;;;;;;2.78;0.85;;;;;;;;;;5166491;27;20682;-19
2022/04/09 07:04:32;;;;;;;5.05;1.27;;;;;;;;;;5160720;27;20233;-19
2022/04/09 07:07:01;;;;;;;2.55;0.80;;;;;;;;;;5166917;27;20228;-19
2022/04/09 07:09:28;;;;;;;3.83;1.27;;;;;;;;;;5159170;27;20230;-19
2022/04/09 07:11:56;;;;;;;2.35;0.77;;;;;;;;;;5165256;27;20692;-19
2022/04/09 07:14:23;;;;;;;2.75;0.85;;;;;;;;;;5149135;27;20230;-19
2022/04/09 07:16:50;;;;;;;2.55;0.80;;;;;;;;;;5158065;27;20223;-19
2022/04/09 07:19:18;;;;;;;4.47;1.23;;;;;;;;;;5149010;27;20219;-19
2022/04/09 07:21:47;;;;;;;4.57;1.17;;;;;;;;;;5156279;27;20244;-19
2022/04/09 07:24:19;;;;;;;4.88;0.90;;;;;;;;;;5156315;27;20317;-19
2022/04/09 07:26:46;;;;;;;2.67;1.30;;;;;;;;;;5160070;27;20230;-19
2022/04/09 07:29:13;;;;;;;4.47;1.00;;;;;;;;;;5159101;27;20234;-19
2022/04/09 07:31:41;;;;;;;4.40;0.90;;;;;;;;;;5154923;27;20226;-19
2022/04/09 07:34:08;;;;;;;6.20;1.35;;;;;;;;;;5159856;27;20333;-19
2022/04/09 07:36:35;;;;;;;3.40;1.33;;;;;;;;;;5162353;27;20695;-19
2022/04/09 07:39:03;;;;;;;3.50;0.93;;;;;;;;;;5167745;27;20233;-19
2022/04/09 07:41:31;;;;;;;4.78;1.10;;;;;;;;;;5162768;27;20225;-19
2022/04/09 07:43:59;;;;;;;10.38;1.17;;;;;;;;;;5161846;27;20226;-19
2022/04/09 07:46:27;;;;;;;6.40;1.20;;;;;;;;;;5158142;27;20223;-19
2022/04/09 07:48:59;;;;;;;5.30;1.05;;;;;;;;;;5160393;27;20311;-19
2022/04/09 07:51:26;;;;;;;11.20;1.30;;;;;;;;;;5154109;27;20284;-19
2022/04/09 07:53:53;;;;;;;8.95;1.23;;;;;;;;;;5155679;27;20245;-19
2022/04/09 07:56:20;;;;;;;7.53;1.02;;;;;;;;;;5163223;27;20242;-19
2022/04/09 07:58:49;;;;;;;8.38;1.25;;;;;;;;;;5166770;27;20229;-19
2022/04/09 08:01:17;;;;;;;2.75;1.08;;;;;;;;;;5162810;27;20317;-19
2022/04/09 08:03:44;;;;;;;3.22;0.80;;;;;;;;;;5168235;27;20256;-19
2022/04/09 08:06:11;;;;;;;4.93;1.05;;;;;;;;;;5166929;27;20225;-18
2022/04/09 08:08:39;;;;;;;3.78;1.10;;;;;;;;;;5172337;27;20236;-18
2022/04/09 08:11:06;;;;;;;4.55;1.10;;;;;;;;;;5168479;27;20226;-19
2022/04/09 08:13:35;;;;;;;4.32;1.45;;;;;;;;;;5163390;27;20324;-18
2022/04/09 08:16:04;;;;;;;12.35;1.63;;;;;;;;;;5166684;27;20719;-18
2022/04/09 08:18:32;;;;;;;11.00;1.73;;;;;;;;;;5155426;27;20412;-18
2022/04/09 08:21:02;;;;;;;7.38;1.10;;;;;;;;;;5161359;27;20240;-18
2022/04/09 08:23:29;;;;;;;7.57;1.00;;;;;;;;;;5166678;27;20231;-18
2022/04/09 08:25:57;;;;;;;7.13;1.40;;;;;;;;;;5166688;27;20354;-18
2022/04/09 08:28:25;;;;;;;10.73;1.35;;;;;;;;;;5145782;27;20231;-18
2022/04/09 08:30:53;;;;;;;14.38;1.60;;;;;;;;;;5163261;27;20428;-18
2022/04/09 08:33:21;;;;;;;10.07;1.40;;;;;;;;;;5165323;27;20905;-18
2022/04/09 08:35:49;;;;;;;15.40;1.70;;;;;;;;;;5167942;27;20325;-18
2022/04/09 08:38:16;;;;;;;11.00;0.98;;;;;;;;;;5165199;27;20223;-18
2022/04/09 08:40:44;;;;;;;8.13;0.93;;;;;;;;;;5172342;27;20241;-18
2022/04/09 08:43:11;;;;;;;8.43;1.17;;;;;;;;;;5163453;27;20253;-18
2022/04/09 08:45:40;;;;;;;7.22;1.58;;;;;;;;;;5159516;27;20230;-18
2022/04/09 08:48:08;;;;;;;9.85;1.50;;;;;;;;;;5163769;27;21225;-18
2022/04/09 08:50:36;;;;;;;6.72;1.13;;;;;;;;;;5165211;27;20215;-18
2022/04/09 08:53:07;;;;;;;7.90;1.05;;;;;;;;;;5169594;27;20219;-18
2022/04/09 08:55:35;;;;;;;5.55;1.42;;;;;;;;;;5165895;27;20297;-18
2022/04/09 08:58:02;;;;;;;8.55;1.25;;;;;;;;;;5167219;27;20207;-18
2022/04/09 09:00:29;;;;;;;5.10;1.30;;;;;;;;;;5166324;27;20237;-18
2022/04/09 09:02:57;;;;;;;9.00;1.30;;;;;;;;;;5165103;27;20221;-18
2022/04/09 09:05:31;;;;;;;8.43;1.20;;;;;;;;;;5148980;27;20469;-18
2022/04/09 09:08:00;;;;;;;8.77;1.42;;;;;;;;;;5153558;27;20230;-18
2022/04/09 09:10:27;;;;;;;12.65;1.10;;;;;;;;;;5151960;27;20689;-18
2022/04/09 09:12:58;;;;;;;5.97;0.80;;;;;;;;;;5159529;27;20422;-18
2022/04/09 09:15:26;;;;;;;5.95;0.90;;;;;;;;;;5149973;27;20239;-18
2022/04/09 09:17:56;;;;;;;5.30;0.80;;;;;;;;;;5151350;27;20937;-18
2022/04/09 09:20:24;;;;;;;4.00;0.80;;;;;;;;;;5160332;27;20230;-18
2022/04/09 09:22:51;;;;;;;5.00;0.70;;;;;;;;;;5152705;27;20238;-18
2022/04/09 09:25:20;;;;;;;5.60;1.00;;;;;;;;;;5164242;27;20222;-19
2022/04/09 09:27:55;;;;;;;3.75;0.90;;;;;;;;;;5159362;27;20239;-18
2022/04/09 09:30:22;;;;;;;8.63;0.90;;;;;;;;;;5157531;27;20230;-18
2022/04/09 09:33:04;;;;;;;3.10;0.70;;;;;;;;;;5154680;27;20238;-18
2022/04/09 09:35:52;;;;;;;3.03;0.57;;;;;;;;;;5158435;27;20226;-18
2022/04/09 09:38:20;;;;;;;3.80;1.10;;;;;;;;;;5153073;27;20227;-18
2022/04/09 09:40:49;;;;;;;5.65;0.63;;;;;;;;;;5156941;27;20230;-18
2022/04/09 09:43:16;;;;;;;4.13;0.70;;;;;;;;;;5153001;27;20223;-18
2022/04/09 09:45:44;;;;;;;3.22;0.80;;;;;;;;;;5156823;27;20226;-18
2022/04/09 09:48:20;;;;;;;3.88;1.00;;;;;;;;;;5151734;27;20242;-19
2022/04/09 09:50:48;;;;;;;2.20;0.70;;;;;;;;;;5154676;27;20234;-18
2022/04/09 09:53:15;;;;;;;3.42;0.80;;;;;;;;;;5159191;27;20233;-18
2022/04/09 09:55:43;;;;;;;2.30;0.60;;;;;;;;;;5153463;27;20234;-18
2022/04/09 09:58:13;;;;;;;4.63;0.73;;;;;;;;;;5152957;27;20240;-18
2022/04/09 10:01:00;;;;;;;2.05;0.90;;;;;;;;;;5150719;27;20611;-18
2022/04/09 10:03:28;;;;;;;5.78;0.90;;;;;;;;;;5156713;27;20225;-19
2022/04/09 10:05:55;;;;;;;2.72;1.45;;;;;;;;;;5157519;27;20235;-19
2022/04/09 10:08:22;;;;;;;2.25;0.70;;;;;;;;;;5158114;27;20234;-18
2022/04/09 10:10:50;;;;;;;4.53;0.85;;;;;;;;;;5157102;27;20843;-18
2022/04/09 10:13:20;;;;;;;5.75;1.10;;;;;;;;;;5159474;27;20222;-18
2022/04/09 10:15:50;;;;;;;1.85;0.60;;;;;;;;;;5154661;27;20972;-18
2022/04/09 10:18:20;;;;;;;7.57;0.77;;;;;;;;;;5148236;27;20297;-18
2022/04/09 10:20:49;;;;;;;1.90;0.65;;;;;;;;;;5146932;27;20238;-18
2022/04/09 10:23:17;;;;;;;2.03;0.75;;;;;;;;;;5147858;27;20724;-18
2022/04/09 10:25:46;;;;;;;4.38;0.57;;;;;;;;;;5152894;27;20500;-18
2022/04/09 10:28:14;;;;;;;3.28;0.75;;;;;;;;;;5144838;27;20288;-18
2022/04/09 10:30:43;;;;;;;2.08;0.85;;;;;;;;;;5148749;27;20721;-18
2022/04/09 10:33:20;;;;;;;11.93;0.80;;;;;;;;;;5154829;27;20234;-18
2022/04/09 10:35:48;;;;;;;3.10;0.73;;;;;;;;;;5154876;27;21224;-19
2022/04/09 10:38:17;;;;;;;4.97;0.80;;;;;;;;;;5149974;27;20430;-18
2022/04/09 10:41:03;;;;;;;3.80;0.60;;;;;;;;;;5148155;27;20234;-19
2022/04/09 10:43:39;;;;;;;3.97;0.60;;;;;;;;;;5151205;27;21345;-18
2022/04/09 10:46:20;;;;;;;2.60;0.50;;;;;;;;;;5151520;27;20233;-18
2022/04/09 10:48:48;;;;;;;1.80;0.45;;;;;;;;;;5153656;27;20230;-18
2022/04/09 10:51:15;;;;;;;1.60;0.40;;;;;;;;;;5153764;27;20723;-18
2022/04/09 10:53:43;;;;;;;3.08;0.73;;;;;;;;;;5151704;27;20235;-18
2022/04/09 10:56:11;;;;;;;1.65;0.65;;;;;;;;;;5147091;27;20239;-18
2022/04/09 10:58:58;;;;;;;1.70;0.40;;;;;;;;;;5151735;27;21007;-18
2022/04/09 11:01:45;;;;;;;2.78;0.63;;;;;;;;;;5149140;27;20226;-18
2022/04/09 11:04:32;;;;;;;1.42;0.50;;;;;;;;;;5145971;27;20318;-18
2022/04/09 11:07:02;;;;;;;2.97;0.60;;;;;;;;;;5157480;27;20355;-18
2022/04/09 11:09:41;;;;;;;5.93;0.65;;;;;;;;;;5157289;27;20309;-18
2022/04/09 11:12:08;;;;;;;2.47;0.60;;;;;;;;;;5158669;27;20273;-18
2022/04/09 11:14:42;;;;;;;2.08;0.60;;;;;;;;;;5149892;27;20420;-18
2022/04/09 11:17:19;;;;;;;1.50;0.52;;;;;;;;;;5151628;27;20240;-18
2022/04/09 11:19:47;;;;;;;3.33;0.60;;;;;;;;;;5151447;27;20753;-18
2022/04/09 11:22:18;;;;;;;1.50;0.50;;;;;;;;;;5151237;27;21044;-18
2022/04/09 11:24:46;;;;;;;2.20;0.60;;;;;;;;;;5139801;27;20705;-19
2022/04/09 11:27:13;;;;;;;2.97;0.80;;;;;;;;;;5159586;27;20226;-18
2022/04/09 11:29:41;;;;;;;4.93;0.70;;;;;;;;;;5153930;27;20241;-18
2022/04/09 11:32:17;;;;;;;5.30;0.93;;;;;;;;;;5153322;27;20226;-18
2022/04/09 11:34:51;;;;;;;3.45;0.75;;;;;;;;;;5150001;27;20242;-18
2022/04/09 11:37:20;;;;;;;2.33;0.60;;;;;;;;;;5147627;27;20229;-18
2022/04/09 11:39:47;;;;;;;4.22;0.50;;;;;;;;;;5149501;27;20228;-17
2022/04/09 11:42:15;;;;;;;1.58;0.40;;;;;;;;;;5157854;27;21046;-17
2022/04/09 11:44:48;;;;;;;4.60;0.85;;;;;;;;;;5157258;27;20231;-17
2022/04/09 11:47:16;;;;;;;2.92;0.60;;;;;;;;;;5152120;27;21039;-17
2022/04/09 11:49:43;;;;;;;5.13;0.70;;;;;;;;;;5150730;27;20245;-17
2022/04/09 11:52:11;;;;;;;3.13;0.57;;;;;;;;;;5149855;27;21158;-17
2022/04/09 11:54:40;;;;;;;4.55;0.47;;;;;;;;;;5153970;27;20230;-17
2022/04/09 11:57:11;;;;;;;4.32;0.60;;;;;;;;;;5153266;27;21112;-17
2022/04/09 11:59:39;;;;;;;2.95;0.73;;;;;;;;;;5151724;27;20241;-17
2022/04/09 12:02:16;;;;;;;4.43;0.70;;;;;;;;;;5151793;27;20230;-17
2022/04/09 12:04:44;;;;;;;4.30;0.82;;;;;;;;;;5152156;27;20234;-17
2022/04/09 12:07:11;;;;;;;3.95;0.80;;;;;;;;;;5153043;27;20218;-17
2022/04/09 12:09:40;;;;;;;4.72;0.93;;;;;;;;;;5145618;27;20257;-17
2022/04/09 12:12:08;;;;;;;2.17;0.63;;;;;;;;;;5158530;27;20241;-17
2022/04/09 12:14:36;;;;;;;2.50;0.80;;;;;;;;;;5147514;27;20431;-17
2022/04/09 12:17:10;;;;;;;3.58;0.93;;;;;;;;;;5150688;27;20452;-18
2022/04/09 12:19:38;;;;;;;2.28;0.60;;;;;;;;;;5148837;27;20229;-19
2022/04/09 12:22:17;;;;;;;3.97;0.90;;;;;;;;;;5157423;27;21284;-18
2022/04/09 12:25:02;;;;;;;3.67;0.88;;;;;;;;;;5151050;27;20234;-19
2022/04/09 12:27:44;;;;;;;1.20;0.60;;;;;;;;;;5149161;27;20230;-19
2022/04/09 12:30:11;;;;;;;4.05;0.70;;;;;;;;;;5145647;27;20266;-20
2022/04/09 12:32:41;;;;;;;3.20;0.70;;;;;;;;;;5147976;27;20231;-19
2022/04/09 12:35:08;;;;;;;3.90;0.73;;;;;;;;;;5156472;27;20229;-19
2022/04/09 12:37:42;;;;;;;3.03;0.70;;;;;;;;;;5151588;27;21247;-17
2022/04/09 12:40:13;;;;;;;5.45;0.95;;;;;;;;;;5161934;27;20313;-17
2022/04/09 12:42:41;;;;;;;2.75;0.70;;;;;;;;;;5162581;27;20565;-17
2022/04/09 12:45:11;;;;;;;5.28;1.00;;;;;;;;;;5161377;27;20235;-17
2022/04/09 12:47:38;;;;;;;7.18;0.70;;;;;;;;;;5156286;27;20219;-17
2022/04/09 12:50:06;;;;;;;3.10;0.50;;;;;;;;;;5164259;27;20989;-17
2022/04/09 12:52:34;;;;;;;5.05;0.75;;;;;;;;;;5164593;27;21024;-17
2022/04/09 12:55:01;;;;;;;3.58;0.60;;;;;;;;;;5165235;27;20237;-17
2022/04/09 12:57:29;;;;;;;3.20;0.63;;;;;;;;;;5166486;27;20227;-17
2022/04/09 12:59:57;;;;;;;2.25;0.90;;;;;;;;;;5163397;27;20234;-17
2022/04/09 13:02:26;;;;;;;7.55;0.75;;;;;;;;;;5166388;27;20213;-17
2022/04/09 13:04:53;;;;;;;3.67;0.90;;;;;;;;;;5162161;27;20384;-17
2022/04/09 13:07:21;;;;;;;5.07;0.68;;;;;;;;;;5167038;27;20232;-17
2022/04/09 13:09:48;;;;;;;5.10;0.88;;;;;;;;;;5168895;27;20211;-17
2022/04/09 13:12:16;;;;;;;3.97;0.52;;;;;;;;;;5168810;27;20241;-17
2022/04/09 13:14:43;;;;;;;2.35;0.60;;;;;;;;;;5164037;27;20222;-17
2022/04/09 13:17:10;;;;;;;2.13;0.60;;;;;;;;;;5164141;27;20330;-17
2022/04/09 13:19:39;;;;;;;3.10;0.63;;;;;;;;;;5163300;27;20236;-17
2022/04/09 13:22:06;;;;;;;3.67;0.77;;;;;;;;;;5163861;27;20242;-17
2022/04/09 13:24:33;;;;;;;3.92;0.77;;;;;;;;;;5166585;27;20234;-17
2022/04/09 13:27:01;;;;;;;2.78;0.65;;;;;;;;;;5162511;27;20248;-17
2022/04/09 13:29:29;;;;;;;2.10;0.70;;;;;;;;;;5165438;27;20230;-17
2022/04/09 13:31:56;;;;;;;3.83;0.60;;;;;;;;;;5166494;27;20252;-17
2022/04/09 13:34:23;;;;;;;1.30;0.55;;;;;;;;;;5163999;27;20226;-17
2022/04/09 13:36:52;;;;;;;3.03;0.70;;;;;;;;;;5164984;27;20235;-17
2022/04/09 13:39:20;;;;;;;2.65;0.57;;;;;;;;;;5168372;27;20241;-17
2022/04/09 13:41:57;;;;;;;1.98;0.63;;;;;;;;;;5165678;27;20261;-17
2022/04/09 13:44:25;;;;;;;2.60;0.70;;;;;;;;;;5166206;27;20254;-17
2022/04/09 13:46:52;;;;;;;1.35;0.60;;;;;;;;;;5167864;27;20339;-17
2022/04/09 13:49:20;;;;;;;2.58;0.80;;;;;;;;;;5163138;27;20226;-17
2022/04/09 13:51:47;;;;;;;1.50;0.57;;;;;;;;;;5163985;27;20235;-17
2022/04/09 13:54:16;;;;;;;2.38;0.68;;;;;;;;;;5167042;27;21153;-17
2022/04/09 13:56:43;;;;;;;2.30;0.52;;;;;;;;;;5160520;27;20256;-17
2022/04/09 13:59:11;;;;;;;2.78;0.70;;;;;;;;;;5158177;27;20235;-17
2022/04/09 14:01:39;;;;;;;1.92;0.70;;;;;;;;;;5163230;27;20262;-17
2022/04/09 14:04:06;;;;;;;1.67;0.60;;;;;;;;;;5165654;27;21030;-17
2022/04/09 14:06:34;;;;;;;1.92;0.60;;;;;;;;;;5169280;27;20607;-17
2022/04/09 14:09:01;;;;;;;2.15;0.50;;;;;;;;;;5163211;27;20298;-17
2022/04/09 14:11:30;;;;;;;1.35;0.52;;;;;;;;;;5164190;27;20237;-17
2022/04/09 14:13:58;;;;;;;3.17;0.82;;;;;;;;;;5164100;27;20549;-17
2022/04/09 14:16:26;;;;;;;2.58;0.50;;;;;;;;;;5164694;27;20963;-17
2022/04/09 14:18:53;;;;;;;1.95;0.82;;;;;;;;;;5162296;27;20235;-17
2022/04/09 14:21:21;;;;;;;2.65;0.60;;;;;;;;;;5163419;27;20615;-17
2022/04/09 14:23:50;;;;;;;2.50;0.73;;;;;;;;;;5163744;27;20317;-17
2022/04/09 14:26:17;;;;;;;2.13;0.52;;;;;;;;;;5162917;27;21015;-17
2022/04/09 14:28:46;;;;;;;2.72;0.60;;;;;;;;;;5166441;27;20236;-17
2022/04/09 14:31:13;;;;;;;1.80;0.55;;;;;;;;;;5162813;27;20229;-17
2022/04/09 14:33:41;;;;;;;2.83;0.63;;;;;;;;;;5161069;27;20230;-17
2022/04/09 14:36:09;;;;;;;3.15;0.80;;;;;;;;;;5154947;27;20241;-17
2022/04/09 14:38:36;;;;;;;2.55;0.95;;;;;;;;;;5153856;27;20237;-17
2022/04/09 14:41:03;;;;;;;3.38;0.80;;;;;;;;;;5158669;27;20704;-17
2022/04/09 14:43:31;;;;;;;1.42;0.50;;;;;;;;;;5153925;27;20242;-17
2022/04/09 14:45:59;;;;;;;3.03;0.63;;;;;;;;;;5159248;27;20237;-17
2022/04/09 14:48:27;;;;;;;4.93;0.70;;;;;;;;;;5155797;27;20313;-17
2022/04/09 14:50:54;;;;;;;3.78;0.70;;;;;;;;;;5155658;27;20234;-17